sensor_id;sensor_type;location;lat;lon;timestamp;P1;durP1;ratioP1;P2;durP2;ratioP2
67889;SDS011;54685;52.082;5.426;2023-12-22T00:02:26;19.63;;;2.47;;
67889;SDS011;54685;52.082;5.426;2023-12-22T00:04:55;19.48;;;2.05;;
67889;SDS011;54685;52.082;5.426;2023-12-22T00:07:22;15.82;;;2.38;;
67889;SDS011;54685;52.082;5.426;2023-12-22T00:09:49;20.63;;;2.95;;
67889;SDS011;54685;52.082;5.426;2023-12-22T00:12:17;13.65;;;2.33;;
67889;SDS011;54685;52.082;5.426;2023-12-22T00:14:44;15.80;;;2.35;;
67889;SDS011;54685;52.082;5.426;2023-12-22T00:17:11;12.35;;;2.30;;
67889;SDS011;54685;52.082;5.426;2023-12-22T00:19:38;9.80;;;1.75;;
67889;SDS011;54685;52.082;5.426;2023-12-22T00:22:05;7.07;;;1.40;;
67889;SDS011;54685;52.082;5.426;2023-12-22T00:24:32;9.70;;;1.30;;
67889;SDS011;54685;52.082;5.426;2023-12-22T00:26:59;8.43;;;1.10;;
67889;SDS011;54685;52.082;5.426;2023-12-22T00:29:26;10.55;;;1.65;;
67889;SDS011;54685;52.082;5.426;2023-12-22T00:31:55;6.30;;;1.00;;
67889;SDS011;54685;52.082;5.426;2023-12-22T00:34:22;3.92;;;0.88;;
67889;SDS011;54685;52.082;5.426;2023-12-22T00:36:49;5.90;;;1.00;;
67889;SDS011;54685;52.082;5.426;2023-12-22T00:39:17;4.70;;;1.02;;
67889;SDS011;54685;52.082;5.426;2023-12-22T00:41:45;8.10;;;1.20;;
67889;SDS011;54685;52.082;5.426;2023-12-22T00:44:12;6.93;;;1.10;;
67889;SDS011;54685;52.082;5.426;2023-12-22T00:46:38;9.38;;;1.20;;
67889;SDS011;54685;52.082;5.426;2023-12-22T00:49:07;4.38;;;0.80;;
67889;SDS011;54685;52.082;5.426;2023-12-22T00:51:34;6.50;;;1.25;;
67889;SDS011;54685;52.082;5.426;2023-12-22T00:54:01;7.60;;;1.60;;
67889;SDS011;54685;52.082;5.426;2023-12-22T00:56:29;5.95;;;1.15;;
67889;SDS011;54685;52.082;5.426;2023-12-22T00:58:55;8.20;;;1.50;;
67889;SDS011;54685;52.082;5.426;2023-12-22T01:01:34;11.00;;;1.50;;
67889;SDS011;54685;52.082;5.426;2023-12-22T01:04:02;15.60;;;1.42;;
67889;SDS011;54685;52.082;5.426;2023-12-22T01:06:29;11.88;;;1.10;;
67889;SDS011;54685;52.082;5.426;2023-12-22T01:08:58;5.50;;;1.20;;
67889;SDS011;54685;52.082;5.426;2023-12-22T01:11:24;8.38;;;1.52;;
67889;SDS011;54685;52.082;5.426;2023-12-22T01:13:53;11.23;;;1.70;;
67889;SDS011;54685;52.082;5.426;2023-12-22T01:16:20;8.48;;;1.33;;
67889;SDS011;54685;52.082;5.426;2023-12-22T01:18:48;11.23;;;1.50;;
67889;SDS011;54685;52.082;5.426;2023-12-22T01:21:17;8.23;;;1.60;;
67889;SDS011;54685;52.082;5.426;2023-12-22T01:23:44;14.57;;;1.70;;
67889;SDS011;54685;52.082;5.426;2023-12-22T01:26:11;8.52;;;1.40;;
67889;SDS011;54685;52.082;5.426;2023-12-22T01:28:38;10.68;;;1.58;;
67889;SDS011;54685;52.082;5.426;2023-12-22T01:31:05;10.15;;;1.70;;
67889;SDS011;54685;52.082;5.426;2023-12-22T01:33:32;16.65;;;2.17;;
67889;SDS011;54685;52.082;5.426;2023-12-22T01:35:59;13.57;;;1.83;;
67889;SDS011;54685;52.082;5.426;2023-12-22T01:38:26;23.92;;;2.92;;
67889;SDS011;54685;52.082;5.426;2023-12-22T01:40:53;13.45;;;1.90;;
67889;SDS011;54685;52.082;5.426;2023-12-22T01:43:20;8.02;;;1.25;;
67889;SDS011;54685;52.082;5.426;2023-12-22T01:45:49;16.88;;;2.58;;
67889;SDS011;54685;52.082;5.426;2023-12-22T01:48:21;11.23;;;1.70;;
67889;SDS011;54685;52.082;5.426;2023-12-22T01:50:53;11.50;;;1.90;;
67889;SDS011;54685;52.082;5.426;2023-12-22T01:53:22;18.15;;;2.38;;
67889;SDS011;54685;52.082;5.426;2023-12-22T01:55:51;14.10;;;1.92;;
67889;SDS011;54685;52.082;5.426;2023-12-22T01:58:21;13.25;;;1.92;;
67889;SDS011;54685;52.082;5.426;2023-12-22T02:00:50;14.90;;;1.77;;
67889;SDS011;54685;52.082;5.426;2023-12-22T02:03:19;18.48;;;2.58;;
67889;SDS011;54685;52.082;5.426;2023-12-22T02:05:47;17.38;;;2.25;;
67889;SDS011;54685;52.082;5.426;2023-12-22T02:08:15;16.85;;;2.78;;
67889;SDS011;54685;52.082;5.426;2023-12-22T02:10:44;17.58;;;2.17;;
67889;SDS011;54685;52.082;5.426;2023-12-22T02:13:11;15.65;;;2.03;;
67889;SDS011;54685;52.082;5.426;2023-12-22T02:15:39;22.02;;;2.53;;
67889;SDS011;54685;52.082;5.426;2023-12-22T02:18:07;22.08;;;2.67;;
67889;SDS011;54685;52.082;5.426;2023-12-22T02:20:36;21.55;;;2.75;;
67889;SDS011;54685;52.082;5.426;2023-12-22T02:23:04;16.88;;;1.90;;
67889;SDS011;54685;52.082;5.426;2023-12-22T02:25:31;20.05;;;2.60;;
67889;SDS011;54685;52.082;5.426;2023-12-22T02:28:01;24.60;;;3.00;;
67889;SDS011;54685;52.082;5.426;2023-12-22T02:33:27;18.42;;;2.30;;
67889;SDS011;54685;52.082;5.426;2023-12-22T02:35:58;16.83;;;2.40;;
67889;SDS011;54685;52.082;5.426;2023-12-22T02:38:30;24.27;;;2.70;;
67889;SDS011;54685;52.082;5.426;2023-12-22T02:40:59;24.75;;;3.15;;
67889;SDS011;54685;52.082;5.426;2023-12-22T02:43:27;31.55;;;3.15;;
67889;SDS011;54685;52.082;5.426;2023-12-22T02:45:54;25.20;;;3.83;;
67889;SDS011;54685;52.082;5.426;2023-12-22T02:48:21;19.67;;;2.92;;
67889;SDS011;54685;52.082;5.426;2023-12-22T02:50:48;25.10;;;3.70;;
67889;SDS011;54685;52.082;5.426;2023-12-22T02:53:15;27.35;;;3.05;;
67889;SDS011;54685;52.082;5.426;2023-12-22T02:55:42;26.45;;;3.63;;
67889;SDS011;54685;52.082;5.426;2023-12-22T02:58:09;30.00;;;3.33;;
67889;SDS011;54685;52.082;5.426;2023-12-22T03:00:36;22.08;;;3.47;;
67889;SDS011;54685;52.082;5.426;2023-12-22T03:03:06;29.73;;;4.40;;
67889;SDS011;54685;52.082;5.426;2023-12-22T03:05:33;25.60;;;4.22;;
67889;SDS011;54685;52.082;5.426;2023-12-22T03:08:00;26.50;;;3.90;;
67889;SDS011;54685;52.082;5.426;2023-12-22T03:10:28;24.98;;;3.10;;
67889;SDS011;54685;52.082;5.426;2023-12-22T03:12:56;27.48;;;2.97;;
67889;SDS011;54685;52.082;5.426;2023-12-22T03:15:23;23.77;;;3.88;;
67889;SDS011;54685;52.082;5.426;2023-12-22T03:17:50;22.80;;;3.40;;
67889;SDS011;54685;52.082;5.426;2023-12-22T03:20:17;27.42;;;3.75;;
67889;SDS011;54685;52.082;5.426;2023-12-22T03:22:44;27.95;;;3.78;;
67889;SDS011;54685;52.082;5.426;2023-12-22T03:25:11;28.48;;;3.83;;
67889;SDS011;54685;52.082;5.426;2023-12-22T03:27:38;32.10;;;3.20;;
67889;SDS011;54685;52.082;5.426;2023-12-22T03:30:05;25.20;;;3.47;;
67889;SDS011;54685;52.082;5.426;2023-12-22T03:32:33;27.70;;;3.25;;
67889;SDS011;54685;52.082;5.426;2023-12-22T03:35:00;22.00;;;2.88;;
67889;SDS011;54685;52.082;5.426;2023-12-22T03:37:27;22.98;;;3.65;;
67889;SDS011;54685;52.082;5.426;2023-12-22T03:39:54;16.80;;;2.90;;
67889;SDS011;54685;52.082;5.426;2023-12-22T03:42:21;20.98;;;3.08;;
67889;SDS011;54685;52.082;5.426;2023-12-22T03:44:48;23.17;;;4.07;;
67889;SDS011;54685;52.082;5.426;2023-12-22T03:47:15;22.33;;;3.22;;
67889;SDS011;54685;52.082;5.426;2023-12-22T03:49:41;19.17;;;3.00;;
67889;SDS011;54685;52.082;5.426;2023-12-22T03:52:08;21.50;;;3.17;;
67889;SDS011;54685;52.082;5.426;2023-12-22T03:54:37;19.33;;;2.78;;
67889;SDS011;54685;52.082;5.426;2023-12-22T03:57:03;12.98;;;2.25;;
67889;SDS011;54685;52.082;5.426;2023-12-22T03:59:30;10.70;;;1.85;;
67889;SDS011;54685;52.082;5.426;2023-12-22T04:01:57;13.55;;;2.17;;
67889;SDS011;54685;52.082;5.426;2023-12-22T04:04:27;18.88;;;2.10;;
67889;SDS011;54685;52.082;5.426;2023-12-22T04:06:54;14.70;;;2.03;;
67889;SDS011;54685;52.082;5.426;2023-12-22T04:09:21;13.07;;;1.77;;
67889;SDS011;54685;52.082;5.426;2023-12-22T04:11:48;14.88;;;1.98;;
67889;SDS011;54685;52.082;5.426;2023-12-22T04:14:15;9.75;;;1.35;;
67889;SDS011;54685;52.082;5.426;2023-12-22T04:16:44;10.57;;;1.65;;
67889;SDS011;54685;52.082;5.426;2023-12-22T04:19:12;12.93;;;1.95;;
67889;SDS011;54685;52.082;5.426;2023-12-22T04:21:39;9.45;;;1.83;;
67889;SDS011;54685;52.082;5.426;2023-12-22T04:24:05;10.32;;;1.73;;
67889;SDS011;54685;52.082;5.426;2023-12-22T04:26:33;10.77;;;1.98;;
67889;SDS011;54685;52.082;5.426;2023-12-22T04:28:59;16.98;;;2.38;;
67889;SDS011;54685;52.082;5.426;2023-12-22T04:31:26;12.57;;;2.00;;
67889;SDS011;54685;52.082;5.426;2023-12-22T04:33:53;19.65;;;2.28;;
67889;SDS011;54685;52.082;5.426;2023-12-22T04:36:22;16.30;;;2.20;;
67889;SDS011;54685;52.082;5.426;2023-12-22T04:38:49;13.07;;;1.75;;
67889;SDS011;54685;52.082;5.426;2023-12-22T04:41:15;16.35;;;2.08;;
67889;SDS011;54685;52.082;5.426;2023-12-22T04:43:42;13.50;;;2.13;;
67889;SDS011;54685;52.082;5.426;2023-12-22T04:46:09;18.35;;;2.72;;
67889;SDS011;54685;52.082;5.426;2023-12-22T04:48:36;17.95;;;2.65;;
67889;SDS011;54685;52.082;5.426;2023-12-22T04:51:03;18.80;;;2.40;;
67889;SDS011;54685;52.082;5.426;2023-12-22T04:53:30;11.35;;;2.45;;
67889;SDS011;54685;52.082;5.426;2023-12-22T04:55:58;18.25;;;2.67;;
67889;SDS011;54685;52.082;5.426;2023-12-22T04:58:25;24.58;;;3.03;;
67889;SDS011;54685;52.082;5.426;2023-12-22T05:00:52;25.75;;;3.42;;
67889;SDS011;54685;52.082;5.426;2023-12-22T05:03:19;28.13;;;3.13;;
67889;SDS011;54685;52.082;5.426;2023-12-22T05:05:46;31.88;;;3.17;;
67889;SDS011;54685;52.082;5.426;2023-12-22T05:08:13;28.55;;;4.60;;
67889;SDS011;54685;52.082;5.426;2023-12-22T05:10:41;17.38;;;2.63;;
67889;SDS011;54685;52.082;5.426;2023-12-22T05:13:08;27.30;;;3.17;;
67889;SDS011;54685;52.082;5.426;2023-12-22T05:15:35;19.75;;;2.90;;
67889;SDS011;54685;52.082;5.426;2023-12-22T05:18:02;23.55;;;3.75;;
67889;SDS011;54685;52.082;5.426;2023-12-22T05:20:29;21.58;;;2.85;;
67889;SDS011;54685;52.082;5.426;2023-12-22T05:22:56;24.67;;;5.05;;
67889;SDS011;54685;52.082;5.426;2023-12-22T05:25:23;17.50;;;2.92;;
67889;SDS011;54685;52.082;5.426;2023-12-22T05:27:50;22.98;;;3.10;;
67889;SDS011;54685;52.082;5.426;2023-12-22T05:30:18;33.70;;;3.88;;
67889;SDS011;54685;52.082;5.426;2023-12-22T05:32:45;17.92;;;2.70;;
67889;SDS011;54685;52.082;5.426;2023-12-22T05:35:12;22.13;;;4.05;;
67889;SDS011;54685;52.082;5.426;2023-12-22T05:37:39;27.50;;;2.85;;
67889;SDS011;54685;52.082;5.426;2023-12-22T05:40:06;19.70;;;2.45;;
67889;SDS011;54685;52.082;5.426;2023-12-22T05:42:33;18.80;;;2.60;;
67889;SDS011;54685;52.082;5.426;2023-12-22T05:45:01;18.65;;;3.10;;
67889;SDS011;54685;52.082;5.426;2023-12-22T05:47:28;23.50;;;3.25;;
67889;SDS011;54685;52.082;5.426;2023-12-22T05:49:55;22.02;;;3.05;;
67889;SDS011;54685;52.082;5.426;2023-12-22T05:52:22;14.88;;;2.60;;
67889;SDS011;54685;52.082;5.426;2023-12-22T05:54:49;11.95;;;1.98;;
67889;SDS011;54685;52.082;5.426;2023-12-22T05:57:16;19.08;;;2.40;;
67889;SDS011;54685;52.082;5.426;2023-12-22T05:59:43;16.90;;;2.65;;
67889;SDS011;54685;52.082;5.426;2023-12-22T06:02:10;16.00;;;2.60;;
67889;SDS011;54685;52.082;5.426;2023-12-22T06:04:37;18.48;;;2.90;;
67889;SDS011;54685;52.082;5.426;2023-12-22T06:07:04;16.55;;;2.92;;
67889;SDS011;54685;52.082;5.426;2023-12-22T06:09:31;15.88;;;2.45;;
67889;SDS011;54685;52.082;5.426;2023-12-22T06:11:58;15.45;;;2.40;;
67889;SDS011;54685;52.082;5.426;2023-12-22T06:14:25;17.60;;;2.83;;
67889;SDS011;54685;52.082;5.426;2023-12-22T06:16:52;18.58;;;2.70;;
67889;SDS011;54685;52.082;5.426;2023-12-22T06:19:20;22.42;;;3.00;;
67889;SDS011;54685;52.082;5.426;2023-12-22T06:21:48;19.27;;;2.72;;
67889;SDS011;54685;52.082;5.426;2023-12-22T06:24:15;23.48;;;2.80;;
67889;SDS011;54685;52.082;5.426;2023-12-22T06:26:42;20.90;;;2.80;;
67889;SDS011;54685;52.082;5.426;2023-12-22T06:29:09;23.10;;;3.78;;
67889;SDS011;54685;52.082;5.426;2023-12-22T06:31:36;21.40;;;3.28;;
67889;SDS011;54685;52.082;5.426;2023-12-22T06:34:03;23.00;;;3.38;;
67889;SDS011;54685;52.082;5.426;2023-12-22T06:36:31;18.27;;;3.47;;
67889;SDS011;54685;52.082;5.426;2023-12-22T06:38:58;23.98;;;3.72;;
67889;SDS011;54685;52.082;5.426;2023-12-22T06:41:26;27.25;;;4.03;;
67889;SDS011;54685;52.082;5.426;2023-12-22T06:43:55;22.65;;;3.78;;
67889;SDS011;54685;52.082;5.426;2023-12-22T06:46:24;27.02;;;3.05;;
67889;SDS011;54685;52.082;5.426;2023-12-22T06:48:55;16.50;;;3.03;;
67889;SDS011;54685;52.082;5.426;2023-12-22T06:51:24;24.25;;;3.60;;
67889;SDS011;54685;52.082;5.426;2023-12-22T06:53:59;21.77;;;3.83;;
67889;SDS011;54685;52.082;5.426;2023-12-22T06:56:29;25.70;;;3.63;;
67889;SDS011;54685;52.082;5.426;2023-12-22T06:59:00;28.77;;;4.57;;
67889;SDS011;54685;52.082;5.426;2023-12-22T07:01:29;20.05;;;3.15;;
67889;SDS011;54685;52.082;5.426;2023-12-22T07:04:00;22.77;;;3.38;;
67889;SDS011;54685;52.082;5.426;2023-12-22T07:06:30;24.80;;;3.97;;
67889;SDS011;54685;52.082;5.426;2023-12-22T07:11:44;25.50;;;4.10;;
67889;SDS011;54685;52.082;5.426;2023-12-22T07:14:17;23.17;;;4.30;;
67889;SDS011;54685;52.082;5.426;2023-12-22T07:16:44;28.23;;;4.65;;
67889;SDS011;54685;52.082;5.426;2023-12-22T07:19:11;26.42;;;4.78;;
67889;SDS011;54685;52.082;5.426;2023-12-22T07:21:43;22.38;;;4.10;;
67889;SDS011;54685;52.082;5.426;2023-12-22T07:24:13;26.90;;;4.45;;
67889;SDS011;54685;52.082;5.426;2023-12-22T07:26:42;33.22;;;5.03;;
67889;SDS011;54685;52.082;5.426;2023-12-22T07:29:11;30.52;;;4.53;;
67889;SDS011;54685;52.082;5.426;2023-12-22T07:31:38;36.33;;;5.85;;
67889;SDS011;54685;52.082;5.426;2023-12-22T07:34:05;26.80;;;4.32;;
67889;SDS011;54685;52.082;5.426;2023-12-22T07:36:35;35.50;;;4.72;;
67889;SDS011;54685;52.082;5.426;2023-12-22T07:39:13;29.65;;;4.70;;
67889;SDS011;54685;52.082;5.426;2023-12-22T07:41:43;32.58;;;5.60;;
67889;SDS011;54685;52.082;5.426;2023-12-22T07:44:10;33.15;;;5.28;;
67889;SDS011;54685;52.082;5.426;2023-12-22T07:46:36;30.48;;;4.90;;
67889;SDS011;54685;52.082;5.426;2023-12-22T07:49:03;28.63;;;4.43;;
67889;SDS011;54685;52.082;5.426;2023-12-22T07:51:31;22.23;;;3.80;;
67889;SDS011;54685;52.082;5.426;2023-12-22T07:53:58;21.17;;;3.33;;
67889;SDS011;54685;52.082;5.426;2023-12-22T07:56:25;14.80;;;3.55;;
67889;SDS011;54685;52.082;5.426;2023-12-22T07:58:52;23.20;;;3.00;;
67889;SDS011;54685;52.082;5.426;2023-12-22T08:01:30;21.80;;;3.25;;
67889;SDS011;54685;52.082;5.426;2023-12-22T08:03:57;23.05;;;3.88;;
67889;SDS011;54685;52.082;5.426;2023-12-22T08:06:24;23.73;;;3.70;;
67889;SDS011;54685;52.082;5.426;2023-12-22T08:08:51;31.30;;;3.90;;
67889;SDS011;54685;52.082;5.426;2023-12-22T08:11:19;33.45;;;4.05;;
67889;SDS011;54685;52.082;5.426;2023-12-22T08:13:47;40.85;;;5.80;;
67889;SDS011;54685;52.082;5.426;2023-12-22T08:16:13;35.55;;;5.00;;
67889;SDS011;54685;52.082;5.426;2023-12-22T08:18:40;39.50;;;5.30;;
67889;SDS011;54685;52.082;5.426;2023-12-22T08:21:07;36.03;;;4.90;;
67889;SDS011;54685;52.082;5.426;2023-12-22T08:23:50;38.65;;;5.57;;
67889;SDS011;54685;52.082;5.426;2023-12-22T08:26:21;32.03;;;4.50;;
67889;SDS011;54685;52.082;5.426;2023-12-22T08:28:49;23.13;;;3.92;;
67889;SDS011;54685;52.082;5.426;2023-12-22T08:31:16;25.48;;;3.45;;
67889;SDS011;54685;52.082;5.426;2023-12-22T08:33:43;18.00;;;2.92;;
67889;SDS011;54685;52.082;5.426;2023-12-22T08:36:11;22.77;;;3.17;;
67889;SDS011;54685;52.082;5.426;2023-12-22T08:38:39;17.83;;;3.28;;
67889;SDS011;54685;52.082;5.426;2023-12-22T08:41:07;14.57;;;2.72;;
67889;SDS011;54685;52.082;5.426;2023-12-22T08:43:35;12.60;;;2.47;;
67889;SDS011;54685;52.082;5.426;2023-12-22T08:46:02;15.32;;;3.03;;
67889;SDS011;54685;52.082;5.426;2023-12-22T08:48:29;19.17;;;3.05;;
67889;SDS011;54685;52.082;5.426;2023-12-22T08:50:56;19.33;;;2.63;;
67889;SDS011;54685;52.082;5.426;2023-12-22T08:53:23;21.73;;;3.10;;
67889;SDS011;54685;52.082;5.426;2023-12-22T08:55:51;22.17;;;2.92;;
67889;SDS011;54685;52.082;5.426;2023-12-22T08:58:18;23.42;;;2.90;;
67889;SDS011;54685;52.082;5.426;2023-12-22T09:00:45;18.67;;;3.05;;
67889;SDS011;54685;52.082;5.426;2023-12-22T09:03:12;23.58;;;3.20;;
67889;SDS011;54685;52.082;5.426;2023-12-22T09:05:39;22.58;;;3.42;;
67889;SDS011;54685;52.082;5.426;2023-12-22T09:08:06;19.33;;;3.15;;
67889;SDS011;54685;52.082;5.426;2023-12-22T09:10:33;20.83;;;3.10;;
67889;SDS011;54685;52.082;5.426;2023-12-22T09:13:00;21.33;;;3.03;;
67889;SDS011;54685;52.082;5.426;2023-12-22T09:15:27;25.13;;;4.18;;
67889;SDS011;54685;52.082;5.426;2023-12-22T09:17:54;14.80;;;2.80;;
67889;SDS011;54685;52.082;5.426;2023-12-22T09:20:22;12.63;;;1.95;;
67889;SDS011;54685;52.082;5.426;2023-12-22T09:22:49;7.82;;;1.52;;
67889;SDS011;54685;52.082;5.426;2023-12-22T09:25:16;8.82;;;1.73;;
67889;SDS011;54685;52.082;5.426;2023-12-22T09:27:43;10.20;;;1.85;;
67889;SDS011;54685;52.082;5.426;2023-12-22T09:30:10;12.52;;;1.95;;
67889;SDS011;54685;52.082;5.426;2023-12-22T09:32:37;9.02;;;1.27;;
67889;SDS011;54685;52.082;5.426;2023-12-22T09:35:04;5.25;;;1.13;;
67889;SDS011;54685;52.082;5.426;2023-12-22T09:37:32;3.17;;;0.70;;
67889;SDS011;54685;52.082;5.426;2023-12-22T09:40:02;3.03;;;0.68;;
67889;SDS011;54685;52.082;5.426;2023-12-22T09:42:32;2.88;;;0.70;;
67889;SDS011;54685;52.082;5.426;2023-12-22T09:44:59;4.97;;;0.57;;
67889;SDS011;54685;52.082;5.426;2023-12-22T09:47:29;5.88;;;0.70;;
67889;SDS011;54685;52.082;5.426;2023-12-22T09:50:01;3.08;;;0.80;;
67889;SDS011;54685;52.082;5.426;2023-12-22T09:52:28;7.18;;;1.15;;
67889;SDS011;54685;52.082;5.426;2023-12-22T09:54:58;6.80;;;1.20;;
67889;SDS011;54685;52.082;5.426;2023-12-22T09:57:26;9.68;;;2.03;;
67889;SDS011;54685;52.082;5.426;2023-12-22T09:59:54;5.72;;;1.60;;
67889;SDS011;54685;52.082;5.426;2023-12-22T10:02:23;6.43;;;1.70;;
67889;SDS011;54685;52.082;5.426;2023-12-22T10:04:54;12.20;;;2.15;;
67889;SDS011;54685;52.082;5.426;2023-12-22T10:07:21;20.13;;;2.63;;
67889;SDS011;54685;52.082;5.426;2023-12-22T10:09:49;18.90;;;2.67;;
67889;SDS011;54685;52.082;5.426;2023-12-22T10:12:16;17.98;;;2.70;;
67889;SDS011;54685;52.082;5.426;2023-12-22T10:14:47;13.82;;;2.75;;
67889;SDS011;54685;52.082;5.426;2023-12-22T10:17:14;10.82;;;2.00;;
67889;SDS011;54685;52.082;5.426;2023-12-22T10:19:41;11.77;;;2.20;;
67889;SDS011;54685;52.082;5.426;2023-12-22T10:22:08;14.38;;;1.70;;
67889;SDS011;54685;52.082;5.426;2023-12-22T10:24:40;10.30;;;1.88;;
67889;SDS011;54685;52.082;5.426;2023-12-22T10:27:14;10.40;;;1.52;;
67889;SDS011;54685;52.082;5.426;2023-12-22T10:29:43;9.52;;;1.58;;
67889;SDS011;54685;52.082;5.426;2023-12-22T10:32:10;15.52;;;1.83;;
67889;SDS011;54685;52.082;5.426;2023-12-22T10:34:37;7.20;;;1.55;;
67889;SDS011;54685;52.082;5.426;2023-12-22T10:37:03;6.63;;;1.52;;
67889;SDS011;54685;52.082;5.426;2023-12-22T10:39:31;7.80;;;1.40;;
67889;SDS011;54685;52.082;5.426;2023-12-22T10:41:59;9.52;;;1.63;;
67889;SDS011;54685;52.082;5.426;2023-12-22T10:44:26;10.52;;;1.70;;
67889;SDS011;54685;52.082;5.426;2023-12-22T10:46:57;15.82;;;2.47;;
67889;SDS011;54685;52.082;5.426;2023-12-22T10:49:26;7.53;;;1.83;;
67889;SDS011;54685;52.082;5.426;2023-12-22T10:51:53;10.75;;;1.52;;
67889;SDS011;54685;52.082;5.426;2023-12-22T10:54:20;14.05;;;2.20;;
67889;SDS011;54685;52.082;5.426;2023-12-22T10:56:47;11.98;;;1.73;;
67889;SDS011;54685;52.082;5.426;2023-12-22T10:59:18;9.18;;;2.13;;
67889;SDS011;54685;52.082;5.426;2023-12-22T11:01:48;14.20;;;2.10;;
67889;SDS011;54685;52.082;5.426;2023-12-22T11:04:20;12.27;;;2.13;;
67889;SDS011;54685;52.082;5.426;2023-12-22T11:06:49;12.15;;;2.28;;
67889;SDS011;54685;52.082;5.426;2023-12-22T11:09:21;11.45;;;1.92;;
67889;SDS011;54685;52.082;5.426;2023-12-22T11:11:51;10.63;;;1.80;;
67889;SDS011;54685;52.082;5.426;2023-12-22T11:14:22;11.38;;;1.73;;
67889;SDS011;54685;52.082;5.426;2023-12-22T11:16:53;13.35;;;1.90;;
67889;SDS011;54685;52.082;5.426;2023-12-22T11:19:21;12.32;;;1.40;;
67889;SDS011;54685;52.082;5.426;2023-12-22T11:21:51;18.10;;;2.13;;
67889;SDS011;54685;52.082;5.426;2023-12-22T11:24:19;8.98;;;1.50;;
67889;SDS011;54685;52.082;5.426;2023-12-22T11:26:48;8.30;;;1.48;;
67889;SDS011;54685;52.082;5.426;2023-12-22T11:29:18;9.57;;;1.40;;
67889;SDS011;54685;52.082;5.426;2023-12-22T11:31:47;9.32;;;1.52;;
67889;SDS011;54685;52.082;5.426;2023-12-22T11:34:17;11.18;;;2.00;;
67889;SDS011;54685;52.082;5.426;2023-12-22T11:36:46;12.85;;;2.95;;
67889;SDS011;54685;52.082;5.426;2023-12-22T11:39:18;14.55;;;3.22;;
67889;SDS011;54685;52.082;5.426;2023-12-22T11:41:45;14.00;;;1.70;;
67889;SDS011;54685;52.082;5.426;2023-12-22T11:44:14;11.85;;;2.00;;
67889;SDS011;54685;52.082;5.426;2023-12-22T11:46:41;14.57;;;2.20;;
67889;SDS011;54685;52.082;5.426;2023-12-22T11:49:09;16.10;;;2.00;;
67889;SDS011;54685;52.082;5.426;2023-12-22T11:51:38;13.77;;;2.10;;
67889;SDS011;54685;52.082;5.426;2023-12-22T11:54:52;9.73;;;1.60;;
67889;SDS011;54685;52.082;5.426;2023-12-22T11:57:30;13.85;;;1.50;;
67889;SDS011;54685;52.082;5.426;2023-12-22T12:00:00;11.50;;;2.00;;
67889;SDS011;54685;52.082;5.426;2023-12-22T12:02:39;9.75;;;1.60;;
67889;SDS011;54685;52.082;5.426;2023-12-22T12:05:08;14.90;;;1.92;;
67889;SDS011;54685;52.082;5.426;2023-12-22T12:07:42;10.85;;;1.77;;
67889;SDS011;54685;52.082;5.426;2023-12-22T12:15:36;18.20;;;2.03;;
67889;SDS011;54685;52.082;5.426;2023-12-22T12:18:05;20.25;;;2.58;;
67889;SDS011;54685;52.082;5.426;2023-12-22T12:20:32;11.85;;;1.88;;
67889;SDS011;54685;52.082;5.426;2023-12-22T12:23:03;14.43;;;2.05;;
67889;SDS011;54685;52.082;5.426;2023-12-22T12:25:32;9.13;;;1.48;;
67889;SDS011;54685;52.082;5.426;2023-12-22T12:28:06;8.73;;;1.73;;
67889;SDS011;54685;52.082;5.426;2023-12-22T12:30:36;9.75;;;2.35;;
67889;SDS011;54685;52.082;5.426;2023-12-22T12:33:07;13.40;;;2.17;;
67889;SDS011;54685;52.082;5.426;2023-12-22T12:35:40;11.40;;;1.70;;
67889;SDS011;54685;52.082;5.426;2023-12-22T12:38:16;10.68;;;2.00;;
67889;SDS011;54685;52.082;5.426;2023-12-22T12:40:45;9.75;;;1.83;;
67889;SDS011;54685;52.082;5.426;2023-12-22T12:43:15;8.93;;;1.30;;
67889;SDS011;54685;52.082;5.426;2023-12-22T12:45:42;15.55;;;2.97;;
67889;SDS011;54685;52.082;5.426;2023-12-22T12:48:09;15.00;;;2.58;;
67889;SDS011;54685;52.082;5.426;2023-12-22T12:50:36;13.70;;;1.88;;
67889;SDS011;54685;52.082;5.426;2023-12-22T12:53:04;12.80;;;1.98;;
67889;SDS011;54685;52.082;5.426;2023-12-22T12:55:32;8.05;;;1.90;;
67889;SDS011;54685;52.082;5.426;2023-12-22T12:57:59;17.40;;;1.88;;
67889;SDS011;54685;52.082;5.426;2023-12-22T13:00:27;12.05;;;1.88;;
67889;SDS011;54685;52.082;5.426;2023-12-22T13:03:04;10.02;;;1.77;;
67889;SDS011;54685;52.082;5.426;2023-12-22T13:05:33;18.40;;;2.10;;
67889;SDS011;54685;52.082;5.426;2023-12-22T13:08:10;10.70;;;2.10;;
67889;SDS011;54685;52.082;5.426;2023-12-22T13:10:39;13.10;;;2.55;;
67889;SDS011;54685;52.082;5.426;2023-12-22T13:13:07;8.95;;;1.80;;
67889;SDS011;54685;52.082;5.426;2023-12-22T13:15:34;11.80;;;2.63;;
67889;SDS011;54685;52.082;5.426;2023-12-22T13:18:01;9.32;;;1.90;;
67889;SDS011;54685;52.082;5.426;2023-12-22T13:20:29;15.68;;;2.58;;
67889;SDS011;54685;52.082;5.426;2023-12-22T13:22:56;12.55;;;2.85;;
67889;SDS011;54685;52.082;5.426;2023-12-22T13:25:23;8.48;;;1.63;;
67889;SDS011;54685;52.082;5.426;2023-12-22T13:27:51;8.52;;;2.05;;
67889;SDS011;54685;52.082;5.426;2023-12-22T13:30:34;14.13;;;1.80;;
67889;SDS011;54685;52.082;5.426;2023-12-22T13:33:04;8.73;;;1.95;;
67889;SDS011;54685;52.082;5.426;2023-12-22T13:35:31;12.68;;;2.15;;
67889;SDS011;54685;52.082;5.426;2023-12-22T13:38:06;13.13;;;2.13;;
67889;SDS011;54685;52.082;5.426;2023-12-22T13:40:34;8.95;;;2.08;;
67889;SDS011;54685;52.082;5.426;2023-12-22T13:43:02;10.93;;;1.83;;
67889;SDS011;54685;52.082;5.426;2023-12-22T13:45:30;11.10;;;2.15;;
67889;SDS011;54685;52.082;5.426;2023-12-22T13:47:57;15.60;;;2.75;;
67889;SDS011;54685;52.082;5.426;2023-12-22T13:50:25;14.68;;;1.95;;
67889;SDS011;54685;52.082;5.426;2023-12-22T13:52:52;14.43;;;2.53;;
67889;SDS011;54685;52.082;5.426;2023-12-22T13:55:21;11.65;;;2.83;;
67889;SDS011;54685;52.082;5.426;2023-12-22T13:57:58;10.95;;;2.03;;
67889;SDS011;54685;52.082;5.426;2023-12-22T14:00:28;20.77;;;2.40;;
67889;SDS011;54685;52.082;5.426;2023-12-22T14:02:56;13.48;;;2.45;;
67889;SDS011;54685;52.082;5.426;2023-12-22T14:05:24;13.85;;;1.90;;
67889;SDS011;54685;52.082;5.426;2023-12-22T14:07:51;8.57;;;2.38;;
67889;SDS011;54685;52.082;5.426;2023-12-22T14:10:19;12.43;;;2.40;;
67889;SDS011;54685;52.082;5.426;2023-12-22T14:12:46;14.40;;;2.60;;
67889;SDS011;54685;52.082;5.426;2023-12-22T14:15:13;12.65;;;2.08;;
67889;SDS011;54685;52.082;5.426;2023-12-22T14:17:40;14.18;;;2.50;;
67889;SDS011;54685;52.082;5.426;2023-12-22T14:20:09;17.45;;;3.15;;
67889;SDS011;54685;52.082;5.426;2023-12-22T14:22:37;14.48;;;2.13;;
67889;SDS011;54685;52.082;5.426;2023-12-22T14:25:05;11.88;;;2.40;;
67889;SDS011;54685;52.082;5.426;2023-12-22T14:27:32;18.75;;;2.95;;
67889;SDS011;54685;52.082;5.426;2023-12-22T14:30:00;15.07;;;2.10;;
67889;SDS011;54685;52.082;5.426;2023-12-22T14:32:27;16.05;;;2.88;;
67889;SDS011;54685;52.082;5.426;2023-12-22T14:34:56;15.05;;;2.67;;
67889;SDS011;54685;52.082;5.426;2023-12-22T14:37:26;15.90;;;2.80;;
67889;SDS011;54685;52.082;5.426;2023-12-22T14:39:54;13.48;;;2.60;;
67889;SDS011;54685;52.082;5.426;2023-12-22T14:42:21;18.45;;;2.95;;
67889;SDS011;54685;52.082;5.426;2023-12-22T14:44:48;17.25;;;2.85;;
67889;SDS011;54685;52.082;5.426;2023-12-22T14:47:15;16.98;;;3.38;;
67889;SDS011;54685;52.082;5.426;2023-12-22T14:49:42;14.82;;;2.65;;
67889;SDS011;54685;52.082;5.426;2023-12-22T14:52:09;18.60;;;3.45;;
67889;SDS011;54685;52.082;5.426;2023-12-22T14:54:36;20.38;;;2.95;;